sensor_id;sensor_type;location;lat;lon;timestamp;P1;durP1;ratioP1;P2;durP2;ratioP2
15968;SDS011;8085;53.472;9.794;2023-12-04T00:01:33;15.27;;;7.63;;
15968;SDS011;8085;53.472;9.794;2023-12-04T00:04:01;22.13;;;8.80;;
15968;SDS011;8085;53.472;9.794;2023-12-04T00:06:28;19.27;;;8.30;;
15968;SDS011;8085;53.472;9.794;2023-12-04T00:08:55;18.15;;;8.00;;
15968;SDS011;8085;53.472;9.794;2023-12-04T00:11:22;21.15;;;8.63;;
15968;SDS011;8085;53.472;9.794;2023-12-04T00:13:48;18.65;;;8.07;;
15968;SDS011;8085;53.472;9.794;2023-12-04T00:16:15;27.33;;;9.85;;
15968;SDS011;8085;53.472;9.794;2023-12-04T00:18:42;23.33;;;9.65;;
15968;SDS011;8085;53.472;9.794;2023-12-04T00:21:10;18.80;;;8.77;;
15968;SDS011;8085;53.472;9.794;2023-12-04T00:23:39;20.27;;;8.88;;
15968;SDS011;8085;53.472;9.794;2023-12-04T00:26:06;21.10;;;9.32;;
15968;SDS011;8085;53.472;9.794;2023-12-04T00:28:35;21.33;;;8.73;;
15968;SDS011;8085;53.472;9.794;2023-12-04T00:31:02;18.25;;;8.73;;
15968;SDS011;8085;53.472;9.794;2023-12-04T00:33:29;21.92;;;9.52;;
15968;SDS011;8085;53.472;9.794;2023-12-04T00:35:56;18.63;;;8.35;;
15968;SDS011;8085;53.472;9.794;2023-12-04T00:38:24;19.98;;;9.57;;
15968;SDS011;8085;53.472;9.794;2023-12-04T00:40:51;21.15;;;7.95;;
15968;SDS011;8085;53.472;9.794;2023-12-04T00:43:18;21.90;;;9.70;;
15968;SDS011;8085;53.472;9.794;2023-12-04T00:45:45;17.20;;;7.82;;
15968;SDS011;8085;53.472;9.794;2023-12-04T00:48:12;17.17;;;8.15;;
15968;SDS011;8085;53.472;9.794;2023-12-04T00:50:38;18.92;;;8.32;;
15968;SDS011;8085;53.472;9.794;2023-12-04T00:53:05;21.17;;;8.65;;
15968;SDS011;8085;53.472;9.794;2023-12-04T00:55:33;19.58;;;9.27;;
15968;SDS011;8085;53.472;9.794;2023-12-04T00:58:00;20.75;;;9.10;;
15968;SDS011;8085;53.472;9.794;2023-12-04T01:00:27;20.83;;;8.73;;
15968;SDS011;8085;53.472;9.794;2023-12-04T01:02:54;17.52;;;7.43;;
15968;SDS011;8085;53.472;9.794;2023-12-04T01:05:21;20.88;;;8.77;;
15968;SDS011;8085;53.472;9.794;2023-12-04T01:10:27;19.60;;;8.88;;
15968;SDS011;8085;53.472;9.794;2023-12-04T01:12:55;19.95;;;9.07;;
15968;SDS011;8085;53.472;9.794;2023-12-04T01:15:22;22.55;;;9.05;;
15968;SDS011;8085;53.472;9.794;2023-12-04T01:17:49;22.73;;;9.43;;
15968;SDS011;8085;53.472;9.794;2023-12-04T01:20:16;20.38;;;8.13;;
15968;SDS011;8085;53.472;9.794;2023-12-04T01:22:43;17.95;;;8.77;;
15968;SDS011;8085;53.472;9.794;2023-12-04T01:25:10;18.60;;;8.18;;
15968;SDS011;8085;53.472;9.794;2023-12-04T01:27:37;17.95;;;8.68;;
15968;SDS011;8085;53.472;9.794;2023-12-04T01:30:06;18.05;;;8.60;;
15968;SDS011;8085;53.472;9.794;2023-12-04T01:32:34;18.23;;;8.60;;
15968;SDS011;8085;53.472;9.794;2023-12-04T01:35:01;18.17;;;8.38;;
15968;SDS011;8085;53.472;9.794;2023-12-04T01:37:28;20.23;;;8.85;;
15968;SDS011;8085;53.472;9.794;2023-12-04T01:39:55;19.70;;;8.10;;
15968;SDS011;8085;53.472;9.794;2023-12-04T01:42:21;19.75;;;8.63;;
15968;SDS011;8085;53.472;9.794;2023-12-04T01:44:48;20.67;;;8.93;;
15968;SDS011;8085;53.472;9.794;2023-12-04T01:47:16;19.27;;;8.77;;
15968;SDS011;8085;53.472;9.794;2023-12-04T01:49:45;18.75;;;8.32;;
15968;SDS011;8085;53.472;9.794;2023-12-04T01:52:12;17.83;;;8.55;;
15968;SDS011;8085;53.472;9.794;2023-12-04T01:54:39;18.88;;;8.93;;
15968;SDS011;8085;53.472;9.794;2023-12-04T01:57:06;17.70;;;8.07;;
15968;SDS011;8085;53.472;9.794;2023-12-04T01:59:34;19.02;;;8.25;;
15968;SDS011;8085;53.472;9.794;2023-12-04T02:02:01;12.05;;;6.68;;
15968;SDS011;8085;53.472;9.794;2023-12-04T02:04:29;17.75;;;7.60;;
15968;SDS011;8085;53.472;9.794;2023-12-04T02:06:57;15.30;;;7.78;;
15968;SDS011;8085;53.472;9.794;2023-12-04T02:09:24;15.95;;;7.55;;
15968;SDS011;8085;53.472;9.794;2023-12-04T02:11:52;15.90;;;7.50;;
15968;SDS011;8085;53.472;9.794;2023-12-04T02:14:19;17.70;;;7.82;;
15968;SDS011;8085;53.472;9.794;2023-12-04T02:16:46;17.38;;;7.63;;
15968;SDS011;8085;53.472;9.794;2023-12-04T02:19:14;17.23;;;7.57;;
15968;SDS011;8085;53.472;9.794;2023-12-04T02:21:43;15.25;;;7.70;;
15968;SDS011;8085;53.472;9.794;2023-12-04T02:24:11;15.90;;;7.75;;
15968;SDS011;8085;53.472;9.794;2023-12-04T02:26:39;17.23;;;7.68;;
15968;SDS011;8085;53.472;9.794;2023-12-04T02:29:14;15.27;;;7.43;;
15968;SDS011;8085;53.472;9.794;2023-12-04T02:31:45;15.95;;;8.00;;
15968;SDS011;8085;53.472;9.794;2023-12-04T02:34:13;15.73;;;7.55;;
15968;SDS011;8085;53.472;9.794;2023-12-04T02:36:42;18.30;;;8.15;;
15968;SDS011;8085;53.472;9.794;2023-12-04T02:39:11;17.13;;;7.50;;
15968;SDS011;8085;53.472;9.794;2023-12-04T02:41:39;16.85;;;7.45;;
15968;SDS011;8085;53.472;9.794;2023-12-04T02:44:06;17.67;;;7.60;;
15968;SDS011;8085;53.472;9.794;2023-12-04T02:46:33;17.98;;;7.78;;
15968;SDS011;8085;53.472;9.794;2023-12-04T02:49:00;14.95;;;6.97;;
15968;SDS011;8085;53.472;9.794;2023-12-04T02:51:26;16.02;;;7.70;;
15968;SDS011;8085;53.472;9.794;2023-12-04T02:53:53;16.13;;;7.30;;
15968;SDS011;8085;53.472;9.794;2023-12-04T02:56:22;18.00;;;8.18;;
15968;SDS011;8085;53.472;9.794;2023-12-04T02:58:48;17.10;;;7.80;;
15968;SDS011;8085;53.472;9.794;2023-12-04T03:01:15;19.35;;;7.75;;
15968;SDS011;8085;53.472;9.794;2023-12-04T03:03:42;19.58;;;7.65;;
15968;SDS011;8085;53.472;9.794;2023-12-04T03:06:09;20.10;;;8.57;;
15968;SDS011;8085;53.472;9.794;2023-12-04T03:08:36;18.58;;;6.75;;
15968;SDS011;8085;53.472;9.794;2023-12-04T03:11:03;15.52;;;6.75;;
15968;SDS011;8085;53.472;9.794;2023-12-04T03:13:31;18.63;;;7.90;;
15968;SDS011;8085;53.472;9.794;2023-12-04T03:15:58;15.90;;;7.32;;
15968;SDS011;8085;53.472;9.794;2023-12-04T03:18:25;16.00;;;7.00;;
15968;SDS011;8085;53.472;9.794;2023-12-04T03:20:53;15.80;;;7.15;;
15968;SDS011;8085;53.472;9.794;2023-12-04T03:23:20;14.15;;;6.53;;
15968;SDS011;8085;53.472;9.794;2023-12-04T03:25:47;13.48;;;6.30;;
15968;SDS011;8085;53.472;9.794;2023-12-04T03:28:14;16.42;;;7.30;;
15968;SDS011;8085;53.472;9.794;2023-12-04T03:30:43;18.85;;;8.35;;
15968;SDS011;8085;53.472;9.794;2023-12-04T03:33:10;16.63;;;7.15;;
15968;SDS011;8085;53.472;9.794;2023-12-04T03:35:37;15.93;;;7.32;;
15968;SDS011;8085;53.472;9.794;2023-12-04T03:38:04;16.20;;;7.47;;
15968;SDS011;8085;53.472;9.794;2023-12-04T03:40:31;21.25;;;8.25;;
15968;SDS011;8085;53.472;9.794;2023-12-04T03:42:58;16.75;;;7.03;;
15968;SDS011;8085;53.472;9.794;2023-12-04T03:45:25;17.23;;;7.93;;
15968;SDS011;8085;53.472;9.794;2023-12-04T03:47:53;16.17;;;7.50;;
15968;SDS011;8085;53.472;9.794;2023-12-04T03:50:20;18.00;;;7.68;;
15968;SDS011;8085;53.472;9.794;2023-12-04T03:52:47;16.15;;;7.03;;
15968;SDS011;8085;53.472;9.794;2023-12-04T03:55:14;16.73;;;6.82;;
15968;SDS011;8085;53.472;9.794;2023-12-04T03:57:41;15.73;;;7.05;;
15968;SDS011;8085;53.472;9.794;2023-12-04T04:00:10;17.63;;;6.93;;
15968;SDS011;8085;53.472;9.794;2023-12-04T04:02:39;14.07;;;7.13;;
15968;SDS011;8085;53.472;9.794;2023-12-04T04:05:07;14.88;;;7.60;;
15968;SDS011;8085;53.472;9.794;2023-12-04T04:07:34;17.63;;;7.00;;
15968;SDS011;8085;53.472;9.794;2023-12-04T04:10:01;18.02;;;7.85;;
15968;SDS011;8085;53.472;9.794;2023-12-04T04:12:29;14.05;;;6.47;;
15968;SDS011;8085;53.472;9.794;2023-12-04T04:14:56;18.10;;;7.30;;
15968;SDS011;8085;53.472;9.794;2023-12-04T04:17:22;17.42;;;7.35;;
15968;SDS011;8085;53.472;9.794;2023-12-04T04:19:51;15.98;;;6.50;;
15968;SDS011;8085;53.472;9.794;2023-12-04T04:22:19;18.23;;;7.47;;
15968;SDS011;8085;53.472;9.794;2023-12-04T04:24:46;18.80;;;7.72;;
15968;SDS011;8085;53.472;9.794;2023-12-04T04:27:13;15.75;;;7.15;;
15968;SDS011;8085;53.472;9.794;2023-12-04T04:29:40;14.52;;;7.13;;
15968;SDS011;8085;53.472;9.794;2023-12-04T04:32:07;18.05;;;7.95;;
15968;SDS011;8085;53.472;9.794;2023-12-04T04:34:34;15.70;;;7.10;;
15968;SDS011;8085;53.472;9.794;2023-12-04T04:37:01;13.45;;;6.55;;
15968;SDS011;8085;53.472;9.794;2023-12-04T04:39:30;15.88;;;7.10;;
15968;SDS011;8085;53.472;9.794;2023-12-04T04:41:57;17.50;;;7.55;;
15968;SDS011;8085;53.472;9.794;2023-12-04T04:44:24;16.08;;;7.07;;
15968;SDS011;8085;53.472;9.794;2023-12-04T04:46:51;16.20;;;6.22;;
15968;SDS011;8085;53.472;9.794;2023-12-04T04:49:17;17.02;;;6.90;;
15968;SDS011;8085;53.472;9.794;2023-12-04T04:51:44;16.30;;;6.45;;
15968;SDS011;8085;53.472;9.794;2023-12-04T04:54:11;14.27;;;6.55;;
15968;SDS011;8085;53.472;9.794;2023-12-04T04:56:39;13.15;;;6.20;;
15968;SDS011;8085;53.472;9.794;2023-12-04T04:59:06;14.95;;;6.80;;
15968;SDS011;8085;53.472;9.794;2023-12-04T05:01:33;15.77;;;7.15;;
15968;SDS011;8085;53.472;9.794;2023-12-04T05:04:00;17.17;;;6.60;;
15968;SDS011;8085;53.472;9.794;2023-12-04T05:06:27;13.10;;;6.43;;
15968;SDS011;8085;53.472;9.794;2023-12-04T05:08:54;18.10;;;6.95;;
15968;SDS011;8085;53.472;9.794;2023-12-04T05:11:21;15.68;;;6.78;;
15968;SDS011;8085;53.472;9.794;2023-12-04T05:13:50;11.52;;;5.65;;
15968;SDS011;8085;53.472;9.794;2023-12-04T05:16:17;16.52;;;6.93;;
15968;SDS011;8085;53.472;9.794;2023-12-04T05:18:44;15.60;;;7.07;;
15968;SDS011;8085;53.472;9.794;2023-12-04T05:21:10;12.65;;;6.10;;
15968;SDS011;8085;53.472;9.794;2023-12-04T05:23:38;11.82;;;5.97;;
15968;SDS011;8085;53.472;9.794;2023-12-04T05:26:05;15.52;;;6.05;;
15968;SDS011;8085;53.472;9.794;2023-12-04T05:28:32;14.80;;;6.50;;
15968;SDS011;8085;53.472;9.794;2023-12-04T05:31:01;13.75;;;5.97;;
15968;SDS011;8085;53.472;9.794;2023-12-04T05:33:28;12.77;;;5.72;;
15968;SDS011;8085;53.472;9.794;2023-12-04T05:35:55;12.68;;;6.10;;
15968;SDS011;8085;53.472;9.794;2023-12-04T05:38:22;14.38;;;5.50;;
15968;SDS011;8085;53.472;9.794;2023-12-04T05:40:49;13.80;;;6.47;;
15968;SDS011;8085;53.472;9.794;2023-12-04T05:43:15;13.63;;;6.10;;
15968;SDS011;8085;53.472;9.794;2023-12-04T05:45:43;14.32;;;6.55;;
15968;SDS011;8085;53.472;9.794;2023-12-04T05:48:12;12.95;;;5.93;;
15968;SDS011;8085;53.472;9.794;2023-12-04T05:50:38;12.77;;;5.85;;
15968;SDS011;8085;53.472;9.794;2023-12-04T05:53:06;12.57;;;6.05;;
15968;SDS011;8085;53.472;9.794;2023-12-04T05:55:33;13.65;;;5.90;;
15968;SDS011;8085;53.472;9.794;2023-12-04T05:58:00;11.60;;;5.75;;
15968;SDS011;8085;53.472;9.794;2023-12-04T06:00:27;13.30;;;6.18;;
15968;SDS011;8085;53.472;9.794;2023-12-04T06:02:54;13.50;;;5.72;;
15968;SDS011;8085;53.472;9.794;2023-12-04T06:05:22;11.82;;;5.70;;
15968;SDS011;8085;53.472;9.794;2023-12-04T06:07:49;12.30;;;5.68;;
15968;SDS011;8085;53.472;9.794;2023-12-04T06:10:16;11.65;;;5.55;;
15968;SDS011;8085;53.472;9.794;2023-12-04T06:12:43;15.90;;;6.07;;
15968;SDS011;8085;53.472;9.794;2023-12-04T06:15:10;13.00;;;5.75;;
15968;SDS011;8085;53.472;9.794;2023-12-04T06:17:37;12.00;;;5.60;;
15968;SDS011;8085;53.472;9.794;2023-12-04T06:20:04;13.35;;;5.25;;
15968;SDS011;8085;53.472;9.794;2023-12-04T06:22:34;12.93;;;5.30;;
15968;SDS011;8085;53.472;9.794;2023-12-04T06:25:01;10.95;;;5.60;;
15968;SDS011;8085;53.472;9.794;2023-12-04T06:27:29;11.32;;;5.05;;
15968;SDS011;8085;53.472;9.794;2023-12-04T06:29:56;10.27;;;5.10;;
15968;SDS011;8085;53.472;9.794;2023-12-04T06:32:24;10.90;;;4.60;;
15968;SDS011;8085;53.472;9.794;2023-12-04T06:34:51;12.07;;;5.38;;
15968;SDS011;8085;53.472;9.794;2023-12-04T06:37:20;11.25;;;5.32;;
15968;SDS011;8085;53.472;9.794;2023-12-04T06:39:49;12.57;;;5.75;;
15968;SDS011;8085;53.472;9.794;2023-12-04T06:42:19;12.88;;;5.97;;
15968;SDS011;8085;53.472;9.794;2023-12-04T06:44:46;12.88;;;5.00;;
15968;SDS011;8085;53.472;9.794;2023-12-04T06:47:13;14.57;;;6.68;;
15968;SDS011;8085;53.472;9.794;2023-12-04T06:49:44;17.10;;;7.93;;
15968;SDS011;8085;53.472;9.794;2023-12-04T06:52:11;9.13;;;4.85;;
15968;SDS011;8085;53.472;9.794;2023-12-04T06:54:37;13.82;;;5.78;;
15968;SDS011;8085;53.472;9.794;2023-12-04T06:57:06;10.00;;;4.82;;
15968;SDS011;8085;53.472;9.794;2023-12-04T06:59:33;13.10;;;6.13;;
15968;SDS011;8085;53.472;9.794;2023-12-04T07:02:00;10.02;;;4.95;;
15968;SDS011;8085;53.472;9.794;2023-12-04T07:04:26;11.68;;;5.43;;
15968;SDS011;8085;53.472;9.794;2023-12-04T07:06:53;14.82;;;6.53;;
15968;SDS011;8085;53.472;9.794;2023-12-04T07:09:21;12.38;;;5.53;;
15968;SDS011;8085;53.472;9.794;2023-12-04T07:11:48;17.95;;;8.07;;
15968;SDS011;8085;53.472;9.794;2023-12-04T07:14:16;14.15;;;6.68;;
15968;SDS011;8085;53.472;9.794;2023-12-04T07:16:43;10.63;;;5.80;;
15968;SDS011;8085;53.472;9.794;2023-12-04T07:19:10;12.93;;;6.53;;
15968;SDS011;8085;53.472;9.794;2023-12-04T07:21:38;12.00;;;5.78;;
15968;SDS011;8085;53.472;9.794;2023-12-04T07:24:05;12.15;;;6.05;;
15968;SDS011;8085;53.472;9.794;2023-12-04T07:26:32;13.13;;;6.28;;
15968;SDS011;8085;53.472;9.794;2023-12-04T07:29:00;16.05;;;8.02;;
15968;SDS011;8085;53.472;9.794;2023-12-04T07:31:28;20.02;;;9.57;;
15968;SDS011;8085;53.472;9.794;2023-12-04T07:33:55;13.85;;;7.03;;
15968;SDS011;8085;53.472;9.794;2023-12-04T07:36:22;22.35;;;10.60;;
15968;SDS011;8085;53.472;9.794;2023-12-04T07:38:50;15.88;;;7.53;;
15968;SDS011;8085;53.472;9.794;2023-12-04T07:41:19;16.23;;;7.15;;
15968;SDS011;8085;53.472;9.794;2023-12-04T07:43:45;25.23;;;10.75;;
15968;SDS011;8085;53.472;9.794;2023-12-04T07:46:12;15.35;;;7.28;;
15968;SDS011;8085;53.472;9.794;2023-12-04T07:48:40;21.90;;;9.40;;
15968;SDS011;8085;53.472;9.794;2023-12-04T07:51:08;16.52;;;7.50;;
15968;SDS011;8085;53.472;9.794;2023-12-04T07:53:35;18.02;;;8.25;;
15968;SDS011;8085;53.472;9.794;2023-12-04T07:56:02;14.88;;;6.85;;
15968;SDS011;8085;53.472;9.794;2023-12-04T07:58:30;16.20;;;7.05;;
15968;SDS011;8085;53.472;9.794;2023-12-04T08:00:57;18.83;;;8.68;;
15968;SDS011;8085;53.472;9.794;2023-12-04T08:03:24;16.80;;;8.10;;
15968;SDS011;8085;53.472;9.794;2023-12-04T08:05:52;18.25;;;7.85;;
15968;SDS011;8085;53.472;9.794;2023-12-04T08:08:19;18.23;;;8.40;;
15968;SDS011;8085;53.472;9.794;2023-12-04T08:10:47;14.45;;;6.75;;
15968;SDS011;8085;53.472;9.794;2023-12-04T08:13:14;21.08;;;9.18;;
15968;SDS011;8085;53.472;9.794;2023-12-04T08:15:41;19.88;;;8.80;;
15968;SDS011;8085;53.472;9.794;2023-12-04T08:18:07;18.85;;;7.05;;
15968;SDS011;8085;53.472;9.794;2023-12-04T08:20:34;19.75;;;8.65;;
15968;SDS011;8085;53.472;9.794;2023-12-04T08:23:02;15.88;;;8.13;;
15968;SDS011;8085;53.472;9.794;2023-12-04T08:25:30;15.98;;;7.30;;
15968;SDS011;8085;53.472;9.794;2023-12-04T08:27:58;15.57;;;6.97;;
15968;SDS011;8085;53.472;9.794;2023-12-04T08:30:25;17.48;;;7.93;;
15968;SDS011;8085;53.472;9.794;2023-12-04T08:32:53;17.20;;;6.43;;
15968;SDS011;8085;53.472;9.794;2023-12-04T08:35:20;19.20;;;7.22;;
15968;SDS011;8085;53.472;9.794;2023-12-04T08:37:47;19.52;;;9.13;;
15968;SDS011;8085;53.472;9.794;2023-12-04T08:40:15;19.20;;;8.75;;
15968;SDS011;8085;53.472;9.794;2023-12-04T08:42:42;23.83;;;10.68;;
15968;SDS011;8085;53.472;9.794;2023-12-04T08:45:10;26.52;;;12.07;;
15968;SDS011;8085;53.472;9.794;2023-12-04T08:47:37;20.92;;;9.77;;
15968;SDS011;8085;53.472;9.794;2023-12-04T08:50:04;30.65;;;13.45;;
15968;SDS011;8085;53.472;9.794;2023-12-04T08:52:31;20.13;;;8.60;;
15968;SDS011;8085;53.472;9.794;2023-12-04T08:54:59;16.85;;;6.97;;
15968;SDS011;8085;53.472;9.794;2023-12-04T08:57:28;19.45;;;8.75;;
15968;SDS011;8085;53.472;9.794;2023-12-04T08:59:55;17.40;;;8.20;;
15968;SDS011;8085;53.472;9.794;2023-12-04T09:02:22;16.13;;;6.38;;
15968;SDS011;8085;53.472;9.794;2023-12-04T09:04:48;16.55;;;7.35;;
15968;SDS011;8085;53.472;9.794;2023-12-04T09:07:15;17.08;;;7.57;;
15968;SDS011;8085;53.472;9.794;2023-12-04T09:09:42;17.00;;;8.07;;
15968;SDS011;8085;53.472;9.794;2023-12-04T09:12:09;21.67;;;9.45;;
15968;SDS011;8085;53.472;9.794;2023-12-04T09:14:39;17.40;;;8.00;;
15968;SDS011;8085;53.472;9.794;2023-12-04T09:17:07;17.80;;;7.63;;
15968;SDS011;8085;53.472;9.794;2023-12-04T09:19:34;18.85;;;8.45;;
15968;SDS011;8085;53.472;9.794;2023-12-04T09:22:01;17.83;;;6.82;;
15968;SDS011;8085;53.472;9.794;2023-12-04T09:24:28;15.85;;;6.55;;
15968;SDS011;8085;53.472;9.794;2023-12-04T09:26:56;14.55;;;7.10;;
15968;SDS011;8085;53.472;9.794;2023-12-04T09:29:23;18.50;;;7.22;;
15968;SDS011;8085;53.472;9.794;2023-12-04T09:31:51;15.43;;;6.75;;
15968;SDS011;8085;53.472;9.794;2023-12-04T09:34:18;19.63;;;7.82;;
15968;SDS011;8085;53.472;9.794;2023-12-04T09:36:47;18.40;;;8.15;;
15968;SDS011;8085;53.472;9.794;2023-12-04T09:39:14;17.23;;;7.30;;
15968;SDS011;8085;53.472;9.794;2023-12-04T09:41:43;17.38;;;7.85;;
15968;SDS011;8085;53.472;9.794;2023-12-04T09:44:12;18.00;;;8.45;;
15968;SDS011;8085;53.472;9.794;2023-12-04T09:46:39;18.02;;;7.90;;
15968;SDS011;8085;53.472;9.794;2023-12-04T09:49:07;21.73;;;9.15;;
15968;SDS011;8085;53.472;9.794;2023-12-04T09:51:34;20.75;;;9.40;;
15968;SDS011;8085;53.472;9.794;2023-12-04T09:54:03;25.08;;;10.32;;
15968;SDS011;8085;53.472;9.794;2023-12-04T09:56:31;39.45;;;15.10;;
15968;SDS011;8085;53.472;9.794;2023-12-04T09:59:00;21.13;;;8.68;;
15968;SDS011;8085;53.472;9.794;2023-12-04T10:01:27;17.75;;;7.90;;
15968;SDS011;8085;53.472;9.794;2023-12-04T10:03:56;18.52;;;8.95;;
15968;SDS011;8085;53.472;9.794;2023-12-04T10:06:24;18.05;;;8.40;;
15968;SDS011;8085;53.472;9.794;2023-12-04T10:08:54;14.90;;;7.10;;
15968;SDS011;8085;53.472;9.794;2023-12-04T10:11:22;17.52;;;7.88;;
15968;SDS011;8085;53.472;9.794;2023-12-04T10:13:49;14.07;;;6.57;;
15968;SDS011;8085;53.472;9.794;2023-12-04T10:16:30;18.48;;;8.85;;
15968;SDS011;8085;53.472;9.794;2023-12-04T10:19:01;15.15;;;6.80;;
15968;SDS011;8085;53.472;9.794;2023-12-04T10:21:42;17.08;;;8.40;;
15968;SDS011;8085;53.472;9.794;2023-12-04T10:24:10;14.63;;;6.80;;
15968;SDS011;8085;53.472;9.794;2023-12-04T10:26:36;17.13;;;8.00;;
15968;SDS011;8085;53.472;9.794;2023-12-04T10:29:04;15.30;;;6.90;;
15968;SDS011;8085;53.472;9.794;2023-12-04T10:31:34;14.38;;;6.70;;
15968;SDS011;8085;53.472;9.794;2023-12-04T10:34:04;12.77;;;6.75;;
15968;SDS011;8085;53.472;9.794;2023-12-04T10:36:32;19.77;;;9.65;;
15968;SDS011;8085;53.472;9.794;2023-12-04T10:39:00;11.50;;;5.78;;
15968;SDS011;8085;53.472;9.794;2023-12-04T10:41:30;14.38;;;6.85;;
15968;SDS011;8085;53.472;9.794;2023-12-04T10:43:57;16.88;;;7.65;;
15968;SDS011;8085;53.472;9.794;2023-12-04T10:46:25;12.98;;;6.10;;
15968;SDS011;8085;53.472;9.794;2023-12-04T10:48:53;15.00;;;7.32;;
15968;SDS011;8085;53.472;9.794;2023-12-04T10:51:21;15.77;;;7.00;;
15968;SDS011;8085;53.472;9.794;2023-12-04T10:53:48;13.88;;;6.30;;
15968;SDS011;8085;53.472;9.794;2023-12-04T10:56:18;15.25;;;6.93;;
15968;SDS011;8085;53.472;9.794;2023-12-04T10:58:46;16.30;;;8.35;;
15968;SDS011;8085;53.472;9.794;2023-12-04T11:01:16;15.13;;;6.60;;
15968;SDS011;8085;53.472;9.794;2023-12-04T11:03:47;13.45;;;6.97;;
15968;SDS011;8085;53.472;9.794;2023-12-04T11:06:16;15.05;;;7.15;;
15968;SDS011;8085;53.472;9.794;2023-12-04T11:08:44;15.27;;;7.93;;
15968;SDS011;8085;53.472;9.794;2023-12-04T11:11:18;15.13;;;7.30;;
15968;SDS011;8085;53.472;9.794;2023-12-04T11:13:52;17.05;;;7.45;;
15968;SDS011;8085;53.472;9.794;2023-12-04T11:16:25;19.40;;;8.48;;
15968;SDS011;8085;53.472;9.794;2023-12-04T11:18:59;21.63;;;8.52;;
15968;SDS011;8085;53.472;9.794;2023-12-04T11:21:29;21.42;;;10.05;;
15968;SDS011;8085;53.472;9.794;2023-12-04T11:23:58;25.83;;;11.00;;
15968;SDS011;8085;53.472;9.794;2023-12-04T11:26:27;29.02;;;13.27;;
15968;SDS011;8085;53.472;9.794;2023-12-04T11:28:55;19.00;;;8.63;;
15968;SDS011;8085;53.472;9.794;2023-12-04T11:31:22;16.25;;;8.45;;
15968;SDS011;8085;53.472;9.794;2023-12-04T11:33:50;16.05;;;7.60;;
15968;SDS011;8085;53.472;9.794;2023-12-04T11:36:16;14.75;;;7.00;;
15968;SDS011;8085;53.472;9.794;2023-12-04T11:38:44;23.67;;;11.23;;
15968;SDS011;8085;53.472;9.794;2023-12-04T11:41:16;18.20;;;8.75;;
15968;SDS011;8085;53.472;9.794;2023-12-04T11:43:45;21.08;;;9.20;;
15968;SDS011;8085;53.472;9.794;2023-12-04T11:46:13;16.13;;;6.60;;
15968;SDS011;8085;53.472;9.794;2023-12-04T11:48:45;15.98;;;7.97;;
15968;SDS011;8085;53.472;9.794;2023-12-04T11:51:15;15.90;;;7.00;;
15968;SDS011;8085;53.472;9.794;2023-12-04T11:54:08;15.50;;;8.18;;
15968;SDS011;8085;53.472;9.794;2023-12-04T11:56:35;16.52;;;8.32;;
15968;SDS011;8085;53.472;9.794;2023-12-04T11:59:03;19.30;;;8.65;;
15968;SDS011;8085;53.472;9.794;2023-12-04T12:01:32;20.23;;;9.40;;
15968;SDS011;8085;53.472;9.794;2023-12-04T12:03:59;14.80;;;7.40;;
15968;SDS011;8085;53.472;9.794;2023-12-04T12:06:27;18.10;;;8.85;;
15968;SDS011;8085;53.472;9.794;2023-12-04T12:08:55;16.05;;;6.93;;
15968;SDS011;8085;53.472;9.794;2023-12-04T12:11:22;14.05;;;6.85;;
15968;SDS011;8085;53.472;9.794;2023-12-04T12:13:50;16.35;;;7.35;;
15968;SDS011;8085;53.472;9.794;2023-12-04T12:16:19;13.95;;;6.75;;
15968;SDS011;8085;53.472;9.794;2023-12-04T12:18:46;17.35;;;7.85;;
15968;SDS011;8085;53.472;9.794;2023-12-04T12:21:12;15.07;;;7.57;;
15968;SDS011;8085;53.472;9.794;2023-12-04T12:23:40;16.38;;;7.75;;
15968;SDS011;8085;53.472;9.794;2023-12-04T12:26:07;13.25;;;6.60;;
15968;SDS011;8085;53.472;9.794;2023-12-04T12:28:35;13.98;;;6.57;;
15968;SDS011;8085;53.472;9.794;2023-12-04T12:31:02;10.85;;;5.95;;
15968;SDS011;8085;53.472;9.794;2023-12-04T12:33:30;12.68;;;7.25;;
15968;SDS011;8085;53.472;9.794;2023-12-04T12:35:57;13.48;;;6.50;;
15968;SDS011;8085;53.472;9.794;2023-12-04T12:38:26;13.15;;;6.72;;
15968;SDS011;8085;53.472;9.794;2023-12-04T12:40:53;14.75;;;7.38;;
15968;SDS011;8085;53.472;9.794;2023-12-04T12:43:20;14.52;;;7.53;;
15968;SDS011;8085;53.472;9.794;2023-12-04T12:45:48;12.75;;;6.90;;
15968;SDS011;8085;53.472;9.794;2023-12-04T12:48:15;12.63;;;6.22;;
15968;SDS011;8085;53.472;9.794;2023-12-04T12:50:44;12.25;;;6.25;;
15968;SDS011;8085;53.472;9.794;2023-12-04T12:53:13;11.10;;;6.07;;
15968;SDS011;8085;53.472;9.794;2023-12-04T12:55:40;12.27;;;6.50;;
15968;SDS011;8085;53.472;9.794;2023-12-04T12:58:08;13.95;;;6.57;;
15968;SDS011;8085;53.472;9.794;2023-12-04T13:00:35;11.40;;;6.10;;
15968;SDS011;8085;53.472;9.794;2023-12-04T13:03:03;12.48;;;6.45;;
15968;SDS011;8085;53.472;9.794;2023-12-04T13:05:29;11.82;;;6.25;;
15968;SDS011;8085;53.472;9.794;2023-12-04T13:07:58;12.88;;;6.22;;
15968;SDS011;8085;53.472;9.794;2023-12-04T13:10:24;12.68;;;6.78;;
15968;SDS011;8085;53.472;9.794;2023-12-04T13:12:51;12.48;;;6.55;;
15968;SDS011;8085;53.472;9.794;2023-12-04T13:15:20;12.77;;;6.47;;
15968;SDS011;8085;53.472;9.794;2023-12-04T13:17:47;10.82;;;6.10;;
15968;SDS011;8085;53.472;9.794;2023-12-04T13:20:14;14.13;;;6.22;;
15968;SDS011;8085;53.472;9.794;2023-12-04T13:22:42;12.93;;;5.47;;
15968;SDS011;8085;53.472;9.794;2023-12-04T13:25:10;13.80;;;6.47;;
15968;SDS011;8085;53.472;9.794;2023-12-04T13:27:37;11.90;;;6.25;;
15968;SDS011;8085;53.472;9.794;2023-12-04T13:30:04;13.75;;;6.60;;
15968;SDS011;8085;53.472;9.794;2023-12-04T13:32:33;12.52;;;6.18;;
15968;SDS011;8085;53.472;9.794;2023-12-04T13:35:00;15.00;;;7.05;;
15968;SDS011;8085;53.472;9.794;2023-12-04T13:37:27;13.73;;;6.78;;
15968;SDS011;8085;53.472;9.794;2023-12-04T13:39:54;11.48;;;5.45;;
15968;SDS011;8085;53.472;9.794;2023-12-04T13:42:24;12.60;;;6.32;;
15968;SDS011;8085;53.472;9.794;2023-12-04T13:45:09;13.55;;;6.40;;
15968;SDS011;8085;53.472;9.794;2023-12-04T13:47:36;15.70;;;7.00;;
15968;SDS011;8085;53.472;9.794;2023-12-04T13:50:03;15.30;;;7.53;;
15968;SDS011;8085;53.472;9.794;2023-12-04T13:52:31;16.33;;;7.65;;
15968;SDS011;8085;53.472;9.794;2023-12-04T13:54:59;17.13;;;7.35;;
15968;SDS011;8085;53.472;9.794;2023-12-04T13:57:27;15.93;;;7.10;;
15968;SDS011;8085;53.472;9.794;2023-12-04T13:59:58;15.77;;;7.68;;
15968;SDS011;8085;53.472;9.794;2023-12-04T14:02:25;15.18;;;7.25;;
15968;SDS011;8085;53.472;9.794;2023-12-04T14:04:52;15.13;;;6.38;;
15968;SDS011;8085;53.472;9.794;2023-12-04T14:07:19;13.98;;;7.20;;
15968;SDS011;8085;53.472;9.794;2023-12-04T14:09:46;13.45;;;6.47;;
15968;SDS011;8085;53.472;9.794;2023-12-04T14:12:12;16.25;;;7.15;;
15968;SDS011;8085;53.472;9.794;2023-12-04T14:14:42;15.50;;;7.05;;
15968;SDS011;8085;53.472;9.794;2023-12-04T14:17:09;16.98;;;7.70;;
15968;SDS011;8085;53.472;9.794;2023-12-04T14:19:37;16.60;;;7.43;;
15968;SDS011;8085;53.472;9.794;2023-12-04T14:22:04;17.30;;;7.88;;
15968;SDS011;8085;53.472;9.794;2023-12-04T14:24:31;17.85;;;7.72;;
15968;SDS011;8085;53.472;9.794;2023-12-04T14:27:00;16.98;;;8.25;;
15968;SDS011;8085;53.472;9.794;2023-12-04T14:29:27;14.65;;;6.68;;
15968;SDS011;8085;53.472;9.794;2023-12-04T14:31:56;18.25;;;7.47;;
15968;SDS011;8085;53.472;9.794;2023-12-04T14:34:24;15.90;;;8.02;;
15968;SDS011;8085;53.472;9.794;2023-12-04T14:36:51;15.73;;;7.40;;
15968;SDS011;8085;53.472;9.794;2023-12-04T14:39:18;17.05;;;7.75;;
15968;SDS011;8085;53.472;9.794;2023-12-04T14:41:45;14.95;;;7.40;;
15968;SDS011;8085;53.472;9.794;2023-12-04T14:44:12;17.77;;;8.50;;
15968;SDS011;8085;53.472;9.794;2023-12-04T14:46:40;16.73;;;8.43;;
15968;SDS011;8085;53.472;9.794;2023-12-04T14:49:08;18.17;;;8.23;;
15968;SDS011;8085;53.472;9.794;2023-12-04T14:51:35;20.73;;;8.75;;
15968;SDS011;8085;53.472;9.794;2023-12-04T14:54:02;18.08;;;8.13;;